createdAt,value
2023-02-23T00:00:46.138Z,-7.66
2023-02-23T00:05:50.020Z,-7.64
2023-02-23T00:10:59.416Z,-7.82
2023-02-23T00:16:06.991Z,-8.01
2023-02-23T00:21:10.833Z,-7.71
2023-02-23T00:26:14.819Z,-7.73
2023-02-23T00:31:19.993Z,-7.91
2023-02-23T00:36:27.539Z,-8.12
2023-02-23T00:41:31.336Z,-8.30
2023-02-23T00:46:35.581Z,-8.15
2023-02-23T00:51:39.950Z,-8.09
2023-02-23T00:56:44.169Z,-8.08
2023-02-23T01:01:48.268Z,-7.92
2023-02-23T01:06:52.223Z,-7.96
2023-02-23T01:11:58.050Z,-8.00
2023-02-23T01:17:01.882Z,-7.95
2023-02-23T01:22:06.189Z,-7.92
2023-02-23T01:27:10.010Z,-7.95
2023-02-23T01:32:15.030Z,-8.03
2023-02-23T01:37:18.870Z,-8.16
2023-02-23T01:42:23.614Z,-8.62
2023-02-23T01:47:28.169Z,-8.29
2023-02-23T01:52:35.629Z,-8.41
2023-02-23T01:57:42.231Z,-8.34
2023-02-23T02:02:49.468Z,-8.21
2023-02-23T02:07:59.700Z,-7.99
2023-02-23T02:13:06.931Z,-7.76
2023-02-23T02:18:38.913Z,-7.56
2023-02-23T02:23:46.866Z,-7.49
2023-02-23T02:29:28.359Z,-7.41
2023-02-23T02:34:51.265Z,-7.23
2023-02-23T02:40:17.210Z,-7.01
2023-02-23T02:45:24.132Z,-6.76
2023-02-23T02:51:06.684Z,-6.64
2023-02-23T02:56:12.271Z,-6.53
2023-02-23T03:01:38.181Z,-6.31
2023-02-23T03:07:07.828Z,-6.11
2023-02-23T03:12:45.313Z,-5.92
2023-02-23T03:18:19.213Z,-5.74
2023-02-23T03:24:09.127Z,-5.57
2023-02-23T03:29:37.335Z,-5.37
2023-02-23T03:35:09.936Z,-5.17
2023-02-23T03:40:45.564Z,-5.13
2023-02-23T03:46:09.203Z,-4.91
2023-02-23T03:51:37.134Z,-4.67
2023-02-23T03:57:04.469Z,-4.46
2023-02-23T04:02:29.569Z,-4.29
2023-02-23T04:07:54.148Z,-4.07
2023-02-23T04:13:31.577Z,-3.83
2023-02-23T04:18:37.920Z,-3.53
2023-02-23T04:23:43.575Z,-3.19
2023-02-23T04:28:47.382Z,-2.88
2023-02-23T04:33:52.038Z,-2.65
2023-02-23T04:38:55.966Z,-2.58
2023-02-23T04:43:59.787Z,-2.56
2023-02-23T04:49:04.919Z,-2.50
2023-02-23T04:54:08.925Z,-2.47
2023-02-23T04:59:13.158Z,-2.29
2023-02-23T05:04:16.983Z,-2.20
2023-02-23T05:09:21.325Z,-2.20
2023-02-23T05:14:27.145Z,-1.89
2023-02-23T05:19:31.015Z,-1.72
2023-02-23T05:24:35.061Z,-1.64
2023-02-23T05:29:39.004Z,-1.58
2023-02-23T05:34:43.023Z,-1.79
2023-02-23T05:39:48.242Z,-1.20
2023-02-23T05:44:52.209Z,-1.29
2023-02-23T05:49:56.182Z,-0.84
2023-02-23T05:55:00.280Z,-0.61
2023-02-23T06:00:06.378Z,-0.54
2023-02-23T06:05:12.463Z,-0.32
2023-02-23T06:10:17.460Z,-0.44
2023-02-23T06:15:21.224Z,0.04
2023-02-23T06:20:25.151Z,0.15
2023-02-23T06:25:28.833Z,0.23
2023-02-23T06:30:32.866Z,0.25
2023-02-23T06:35:36.998Z,0.35
2023-02-23T06:40:42.356Z,0.50
2023-02-23T06:45:48.811Z,0.70
2023-02-23T06:50:54.854Z,0.88
2023-02-23T06:55:58.819Z,0.82
2023-02-23T07:01:02.875Z,1.09
2023-02-23T07:06:07.596Z,1.16
2023-02-23T07:11:14.656Z,1.37
2023-02-23T07:16:18.571Z,1.50
2023-02-23T07:21:23.343Z,1.65
2023-02-23T07:26:27.382Z,1.75
2023-02-23T07:31:31.541Z,1.90
2023-02-23T07:36:35.969Z,2.08
2023-02-23T07:41:39.769Z,1.97
2023-02-23T07:46:53.797Z,2.29
2023-02-23T07:51:57.601Z,2.13
2023-02-23T07:57:01.983Z,2.47
2023-02-23T08:02:06.040Z,2.62
2023-02-23T08:07:11.222Z,2.67
2023-02-23T08:12:16.543Z,2.46
2023-02-23T08:17:20.722Z,2.63
2023-02-23T08:22:24.743Z,2.72
2023-02-23T08:27:28.522Z,2.71
2023-02-23T08:32:37.596Z,2.71
2023-02-23T08:37:43.510Z,2.75
2023-02-23T08:42:52.990Z,2.84
2023-02-23T08:47:57.461Z,2.85
2023-02-23T08:53:01.304Z,2.85
2023-02-23T08:58:10.037Z,2.78
2023-02-23T09:03:13.909Z,2.72
2023-02-23T09:08:17.723Z,2.62
2023-02-23T09:13:21.697Z,2.54
2023-02-23T09:18:30.322Z,2.50
2023-02-23T09:23:37.953Z,2.46
2023-02-23T09:28:41.992Z,2.41
2023-02-23T09:33:46.021Z,2.37
2023-02-23T09:38:57.173Z,2.36
2023-02-23T09:44:14.366Z,2.27
2023-02-23T09:49:22.652Z,2.10
2023-02-23T09:54:31.365Z,2.18
2023-02-23T09:59:36.883Z,2.09
2023-02-23T10:04:50.293Z,1.90
2023-02-23T10:10:27.176Z,1.90
2023-02-23T10:15:42.937Z,1.84
2023-02-23T10:21:14.980Z,1.75
2023-02-23T10:26:25.248Z,1.72
2023-02-23T10:31:43.035Z,1.67
2023-02-23T10:37:03.069Z,1.62
2023-02-23T10:42:15.743Z,1.55
2023-02-23T10:47:27.621Z,1.44
2023-02-23T10:52:32.689Z,1.29
2023-02-23T10:57:40.712Z,1.08
2023-02-23T11:02:46.689Z,0.86
2023-02-23T11:07:50.521Z,0.66
2023-02-23T11:12:54.745Z,0.47
2023-02-23T11:18:01.556Z,0.37
2023-02-23T11:23:31.250Z,0.26
2023-02-23T11:28:37.755Z,0.20
2023-02-23T11:33:41.857Z,0.13
2023-02-23T11:38:48.533Z,0.06
2023-02-23T11:43:57.619Z,0.03
2023-02-23T11:49:07.212Z,0.01
2023-02-23T11:54:28.234Z,-0.13
2023-02-23T11:59:40.411Z,-0.06
2023-02-23T12:04:48.583Z,-0.08
2023-02-23T12:10:07.288Z,-0.11
2023-02-23T12:15:29.472Z,-0.16
2023-02-23T12:20:40.701Z,-0.12
2023-02-23T12:25:53.808Z,-0.15
2023-02-23T12:31:05.925Z,-0.19
2023-02-23T12:36:36.188Z,-0.17
2023-02-23T12:42:18.577Z,-0.15
2023-02-23T12:47:42.088Z,-0.15
2023-02-23T12:52:59.474Z,-0.26
2023-02-23T12:58:24.219Z,-0.16
2023-02-23T13:03:49.425Z,-0.17
2023-02-23T13:09:15.658Z,-0.18
2023-02-23T13:14:59.540Z,-0.19
2023-02-23T13:20:20.763Z,-0.20
2023-02-23T13:25:39.110Z,-0.22
2023-02-23T13:30:48.414Z,-0.23
2023-02-23T13:35:52.721Z,-0.22
2023-02-23T13:41:13.784Z,-0.55
2023-02-23T13:46:39.954Z,-0.26
2023-02-23T13:52:00.986Z,-0.28
2023-02-23T13:57:14.188Z,-0.65
2023-02-23T14:02:40.000Z,-0.29
2023-02-23T14:07:46.498Z,-0.41
2023-02-23T14:13:18.728Z,-0.33
2023-02-23T14:18:22.484Z,-0.32
2023-02-23T14:23:27.304Z,-0.30
2023-02-23T14:28:34.399Z,-0.30
2023-02-23T14:33:52.915Z,-0.62
2023-02-23T14:39:03.353Z,-0.25
2023-02-23T14:44:30.047Z,-0.25
2023-02-23T14:49:44.596Z,-0.31
2023-02-23T14:54:49.077Z,-0.37
2023-02-23T15:00:08.480Z,-0.28
2023-02-23T15:05:16.813Z,-0.27
2023-02-23T15:10:30.833Z,-0.28
2023-02-23T15:15:34.910Z,-0.28
2023-02-23T15:20:38.771Z,-0.29
2023-02-23T15:25:45.195Z,-0.24
2023-02-23T15:30:51.601Z,-0.25
2023-02-23T15:35:57.140Z,-0.24
2023-02-23T15:41:05.124Z,-0.28
2023-02-23T15:46:10.400Z,-0.23
2023-02-23T15:51:30.670Z,-0.22
2023-02-23T15:56:35.815Z,-0.36
2023-02-23T16:01:45.452Z,-0.18
2023-02-23T16:07:07.133Z,-0.15
2023-02-23T16:12:18.191Z,-0.17
2023-02-23T16:17:35.308Z,-0.13
2023-02-23T16:22:40.665Z,-0.15
2023-02-23T16:27:46.609Z,-0.13
2023-02-23T16:33:08.321Z,-0.09
2023-02-23T16:38:14.481Z,-0.07
2023-02-23T16:43:18.341Z,-0.13
2023-02-23T16:48:23.943Z,-0.04
2023-02-23T16:53:28.101Z,-0.03
2023-02-23T16:58:36.765Z,-0.13
2023-02-23T17:03:47.394Z,-0.08
2023-02-23T17:08:58.750Z,0.06
2023-02-23T17:14:03.038Z,-0.03
2023-02-23T17:19:08.103Z,0.02
2023-02-23T17:24:11.958Z,0.01
2023-02-23T17:29:15.775Z,-0.04
2023-02-23T17:34:19.625Z,-0.08
2023-02-23T17:39:28.690Z,-0.21
2023-02-23T17:44:32.515Z,-0.17
2023-02-23T17:49:36.741Z,-0.22
2023-02-23T17:54:40.776Z,-0.26
2023-02-23T17:59:44.750Z,-0.37
2023-02-23T18:04:50.585Z,-0.48
2023-02-23T18:09:54.653Z,-0.51
2023-02-23T18:14:59.092Z,-0.57
2023-02-23T18:20:03.029Z,-0.66
2023-02-23T18:25:07.601Z,-0.82
2023-02-23T18:30:12.148Z,-0.77
2023-02-23T18:35:16.278Z,-0.79
2023-02-23T18:40:24.574Z,-0.87
2023-02-23T18:45:28.728Z,-0.92
2023-02-23T18:50:32.747Z,-1.00
2023-02-23T18:55:38.540Z,-1.38
2023-02-23T19:00:43.746Z,-1.21
2023-02-23T19:05:53.876Z,-1.15
2023-02-23T19:10:58.813Z,-1.13
2023-02-23T19:16:10.090Z,-1.18
2023-02-23T19:21:15.765Z,-1.21
2023-02-23T19:26:20.248Z,-1.21
2023-02-23T19:31:26.690Z,-1.18
2023-02-23T19:36:32.394Z,-1.22
2023-02-23T19:41:36.490Z,-1.22
2023-02-23T19:46:40.680Z,-1.23
2023-02-23T19:51:45.828Z,-1.26
2023-02-23T19:56:50.534Z,-1.09
2023-02-23T20:01:54.572Z,-0.95
2023-02-23T20:06:58.586Z,-0.88
2023-02-23T20:12:02.487Z,-0.68
2023-02-23T20:17:07.205Z,-0.53
2023-02-23T20:22:10.975Z,-0.43
2023-02-23T20:27:14.913Z,-0.36
2023-02-23T20:32:18.790Z,-0.28
2023-02-23T20:37:32.008Z,-0.23
2023-02-23T20:42:35.868Z,-0.15
2023-02-23T20:47:40.030Z,-0.08
2023-02-23T20:52:45.061Z,-0.11
2023-02-23T20:57:49.446Z,-0.01
2023-02-23T21:02:56.191Z,0.02
2023-02-23T21:08:02.345Z,-0.22
2023-02-23T21:13:06.896Z,0.01
2023-02-23T21:18:11.304Z,-0.11
2023-02-23T21:23:18.268Z,-0.04
2023-02-23T21:28:22.843Z,-0.06
2023-02-23T21:33:26.891Z,-0.11
2023-02-23T21:38:30.796Z,-0.12
2023-02-23T21:43:39.753Z,-0.14
2023-02-23T21:48:44.350Z,-0.54
2023-02-23T21:53:49.842Z,-0.24
2023-02-23T21:58:56.737Z,-0.17
2023-02-23T22:04:00.533Z,-0.04
2023-02-23T22:09:07.418Z,0.03
2023-02-23T22:14:11.940Z,0.17
2023-02-23T22:19:16.702Z,0.28
2023-02-23T22:24:20.526Z,0.35
2023-02-23T22:29:26.091Z,0.62
2023-02-23T22:34:29.879Z,0.73
2023-02-23T22:39:34.288Z,0.95
2023-02-23T22:44:39.897Z,1.16
2023-02-23T22:49:43.574Z,1.23
2023-02-23T22:54:48.682Z,1.27
2023-02-23T23:00:01.192Z,1.33
2023-02-23T23:05:08.748Z,1.35
2023-02-23T23:10:13.545Z,1.42
2023-02-23T23:15:19.972Z,1.51
2023-02-23T23:20:26.525Z,1.55
2023-02-23T23:25:30.324Z,1.66
2023-02-23T23:30:36.056Z,1.38
2023-02-23T23:35:39.875Z,1.74
2023-02-23T23:40:47.637Z,1.81
2023-02-23T23:45:52.400Z,1.85
2023-02-23T23:50:56.960Z,1.87
2023-02-23T23:56:06.986Z,1.69
